Airfield :
LOGIN :

Register | Disclaimer

   EN    FR    IT 

 










Legend :    VFR   Marginal VFR   IFR   Intensive IFR   Very Intensive IFR
Visi :
Ceiling :
>= 8 km
>= 3000ft
5 to 8 km
1000 to 3000 ft
1500m to 5 km
500 to 1000 ft
800 to 1500m
200 to 500 ft
< 800m
< 200 ft
Symbols :   Thunderstorms  Fog  Heavy snow  Heavy precipitations  Wind > 20 kt
SIGMETs :     Misc.  Thunderstorms  Icing  Turbulence  Mountain Waves  Volcanic Ashes






- Airport Elevation : 614 ft
- IATA code : CRL


EBCI - Charleroi

CURRENT METAR :
  • 230150Z 23016KT 9999 FEW010 BKN016 09/06 Q1023 TEMPO 22020G30KT 3000 -DZ BKN006

EXPIRED METARs :
  • 230120Z 23018KT 9999 FEW010 BKN016 09/07 Q1023 TEMPO 22020G30KT 3000 -DZ BKN006
  • 230050Z 23018KT 9999 FEW010 BKN016 09/07 Q1023 TEMPO 22020G30KT 3000 -DZ BKN006
  • 230020Z 24015KT 9999 FEW009 BKN015 09/07 Q1024 TEMPO 22020G30KT 3000 -DZ BKN006
  • 222350Z 23018KT 9999 FEW009 BKN014 09/07 Q1024 TEMPO 22020G30KT 3000 -DZ BKN006
  • 222320Z 23017KT 9999 -RA FEW008 BKN013 09/07 Q1024 TEMPO 22020G30KT 3000 -DZ BKN006

TAF TAF EBCI
Valid from the 23 at 00:00 until the 24 at 06:00 UTC


222309Z 2300/2406 24012KT 9999 BKN020
BECMG 2302/2304 SCT008 BKN012
TEMPO 2302/2318 3500 RA BKN008
BECMG 2305/2307 23022G38KT
BECMG 2316/2318 29010KT SCT015 BKN040
BECMG 2400/2402 23004KT
BECMG 2403/2405 SCT006 BKN010



MET'MAP, your aeronautical weather chart ! - Copyright ORBIFLY December 2007 - Disclaimer

ORBIFLY MET'MAP TEAM :

Programming & Development : Alexandra Zaïnal
Concept & original design : Baudouin d'Aumeries
Assistance for programming : Marc-Olivier Méhu
Technical & hardware support : Manuel Goepfert

Contact : metmap@orbifly.com




SOURCES & CREDITS :

   NOAA